sensor_id;sensor_type;location;lat;lon;timestamp;pressure;altitude;pressure_sealevel;temperature;humidity
73103;BME280;61294;65.988;29.172;2023-09-19T00:02:19;98005.31;;;4.18;100.00
73103;BME280;61294;65.988;29.172;2023-09-19T00:04:44;97989.72;;;4.23;100.00
73103;BME280;61294;65.988;29.172;2023-09-19T00:07:10;98001.06;;;4.26;100.00
73103;BME280;61294;65.988;29.172;2023-09-19T00:09:36;97982.81;;;4.25;100.00
73103;BME280;61294;65.988;29.172;2023-09-19T00:12:06;97947.94;;;4.12;100.00
73103;BME280;61294;65.988;29.172;2023-09-19T00:14:32;97972.31;;;4.22;100.00
73103;BME280;61294;65.988;29.172;2023-09-19T00:17:02;97996.84;;;4.39;100.00
73103;BME280;61294;65.988;29.172;2023-09-19T00:19:34;97991.66;;;4.41;100.00
73103;BME280;61294;65.988;29.172;2023-09-19T00:22:00;97987.28;;;4.41;100.00
73103;BME280;61294;65.988;29.172;2023-09-19T00:24:26;97996.88;;;4.42;100.00
73103;BME280;61294;65.988;29.172;2023-09-19T00:26:53;98001.16;;;4.39;100.00
73103;BME280;61294;65.988;29.172;2023-09-19T00:29:21;97980.31;;;4.40;100.00
73103;BME280;61294;65.988;29.172;2023-09-19T00:31:48;97985.63;;;4.46;100.00
73103;BME280;61294;65.988;29.172;2023-09-19T00:34:15;97982.06;;;4.41;100.00
73103;BME280;61294;65.988;29.172;2023-09-19T00:36:42;97987.34;;;4.47;100.00
73103;BME280;61294;65.988;29.172;2023-09-19T00:39:08;97979.47;;;4.43;100.00
73103;BME280;61294;65.988;29.172;2023-09-19T00:41:35;97965.56;;;4.41;100.00
73103;BME280;61294;65.988;29.172;2023-09-19T00:44:02;97975.19;;;4.46;100.00
73103;BME280;61294;65.988;29.172;2023-09-19T00:46:30;97957.72;;;4.36;100.00
73103;BME280;61294;65.988;29.172;2023-09-19T00:48:57;97966.44;;;4.43;100.00
73103;BME280;61294;65.988;29.172;2023-09-19T00:51:23;97962.13;;;4.42;100.00
73103;BME280;61294;65.988;29.172;2023-09-19T00:53:53;97958.59;;;4.38;100.00
73103;BME280;61294;65.988;29.172;2023-09-19T00:56:19;97960.38;;;4.44;100.00
73103;BME280;61294;65.988;29.172;2023-09-19T00:58:46;97954.25;;;4.40;100.00
73103;BME280;61294;65.988;29.172;2023-09-19T01:01:15;97949.03;;;4.40;100.00
73103;BME280;61294;65.988;29.172;2023-09-19T01:03:42;97949.03;;;4.39;100.00
73103;BME280;61294;65.988;29.172;2023-09-19T01:06:08;97948.19;;;4.41;100.00
73103;BME280;61294;65.988;29.172;2023-09-19T01:08:34;97925.50;;;4.31;100.00
73103;BME280;61294;65.988;29.172;2023-09-19T01:11:38;97879.28;;;4.13;100.00
73103;BME280;61294;65.988;29.172;2023-09-19T01:17:00;97926.44;;;4.36;100.00
73103;BME280;61294;65.988;29.172;2023-09-19T01:19:58;97922.91;;;4.32;100.00
73103;BME280;61294;65.988;29.172;2023-09-19T01:22:36;97940.28;;;4.30;100.00
73103;BME280;61294;65.988;29.172;2023-09-19T01:25:30;97922.75;;;4.17;100.00
73103;BME280;61294;65.988;29.172;2023-09-19T01:28:53;97934.13;;;4.24;100.00
73103;BME280;61294;65.988;29.172;2023-09-19T01:30:58;97930.66;;;4.25;100.00
73103;BME280;61294;65.988;29.172;2023-09-19T01:33:25;97936.75;;;4.27;100.00
73103;BME280;61294;65.988;29.172;2023-09-19T01:35:52;97929.81;;;4.29;100.00
73103;BME280;61294;65.988;29.172;2023-09-19T01:38:19;97921.91;;;4.18;100.00
73103;BME280;61294;65.988;29.172;2023-09-19T01:40:57;97924.56;;;4.23;100.00
73103;BME280;61294;65.988;29.172;2023-09-19T01:43:32;97892.28;;;4.07;100.00
73103;BME280;61294;65.988;29.172;2023-09-19T01:48:46;97895.84;;;4.18;100.00
73103;BME280;61294;65.988;29.172;2023-09-19T01:51:21;97901.06;;;4.21;100.00
73103;BME280;61294;65.988;29.172;2023-09-19T01:53:59;97909.75;;;4.22;100.00
73103;BME280;61294;65.988;29.172;2023-09-19T01:56:33;97888.88;;;4.15;100.00
73103;BME280;61294;65.988;29.172;2023-09-19T01:59:06;97891.50;;;4.20;100.00
73103;BME280;61294;65.988;29.172;2023-09-19T02:01:34;97903.72;;;4.24;100.00
73103;BME280;61294;65.988;29.172;2023-09-19T02:04:02;97890.66;;;4.23;100.00
73103;BME280;61294;65.988;29.172;2023-09-19T02:06:28;97895.91;;;4.26;100.00
73103;BME280;61294;65.988;29.172;2023-09-19T02:08:54;97895.88;;;4.24;100.00
73103;BME280;61294;65.988;29.172;2023-09-19T02:11:20;97880.22;;;4.23;100.00
73103;BME280;61294;65.988;29.172;2023-09-19T02:13:46;97888.06;;;4.24;100.00
73103;BME280;61294;65.988;29.172;2023-09-19T02:16:12;97882.84;;;4.21;100.00
73103;BME280;61294;65.988;29.172;2023-09-19T02:18:39;97875.94;;;4.26;100.00
73103;BME280;61294;65.988;29.172;2023-09-19T02:21:04;97882.84;;;4.26;100.00
73103;BME280;61294;65.988;29.172;2023-09-19T02:23:32;97856.78;;;4.24;100.00
73103;BME280;61294;65.988;29.172;2023-09-19T02:26:02;97842.88;;;4.21;100.00
73103;BME280;61294;65.988;29.172;2023-09-19T02:28:29;97858.53;;;4.27;100.00
73103;BME280;61294;65.988;29.172;2023-09-19T02:30:56;97848.13;;;4.28;100.00
73103;BME280;61294;65.988;29.172;2023-09-19T02:33:22;97823.72;;;4.17;100.00
73103;BME280;61294;65.988;29.172;2023-09-19T02:35:47;97829.00;;;4.28;100.00
73103;BME280;61294;65.988;29.172;2023-09-19T02:38:14;97812.47;;;4.24;100.00
73103;BME280;61294;65.988;29.172;2023-09-19T02:40:46;97838.53;;;4.27;100.00
73103;BME280;61294;65.988;29.172;2023-09-19T02:43:12;97827.28;;;4.31;100.00
73103;BME280;61294;65.988;29.172;2023-09-19T02:45:37;97780.19;;;4.02;100.00
73103;BME280;61294;65.988;29.172;2023-09-19T02:48:03;97818.63;;;4.37;100.00
73103;BME280;61294;65.988;29.172;2023-09-19T02:50:29;97819.53;;;4.36;100.00
73103;BME280;61294;65.988;29.172;2023-09-19T02:52:55;97824.72;;;4.36;100.00
73103;BME280;61294;65.988;29.172;2023-09-19T02:55:21;97816.06;;;4.42;100.00
73103;BME280;61294;65.988;29.172;2023-09-19T02:57:52;97826.50;;;4.43;100.00
73103;BME280;61294;65.988;29.172;2023-09-19T03:00:21;97815.19;;;4.41;100.00
73103;BME280;61294;65.988;29.172;2023-09-19T03:02:50;97800.38;;;4.36;100.00
73103;BME280;61294;65.988;29.172;2023-09-19T03:05:17;97778.63;;;4.30;100.00
73103;BME280;61294;65.988;29.172;2023-09-19T03:07:43;97814.34;;;4.42;100.00
73103;BME280;61294;65.988;29.172;2023-09-19T03:10:11;97805.66;;;4.46;100.00
73103;BME280;61294;65.988;29.172;2023-09-19T03:12:37;97783.88;;;4.37;100.00
73103;BME280;61294;65.988;29.172;2023-09-19T03:15:06;97806.53;;;4.48;100.00
73103;BME280;61294;65.988;29.172;2023-09-19T03:17:34;97775.19;;;4.39;100.00
73103;BME280;61294;65.988;29.172;2023-09-19T03:20:00;97782.22;;;4.51;100.00
73103;BME280;61294;65.988;29.172;2023-09-19T03:22:27;97783.06;;;4.48;100.00
73103;BME280;61294;65.988;29.172;2023-09-19T03:24:53;97789.19;;;4.51;100.00
73103;BME280;61294;65.988;29.172;2023-09-19T03:27:19;97700.25;;;4.04;100.00
73103;BME280;61294;65.988;29.172;2023-09-19T03:29:49;97771.78;;;4.48;100.00
73103;BME280;61294;65.988;29.172;2023-09-19T03:32:14;97772.63;;;4.52;100.00
73103;BME280;61294;65.988;29.172;2023-09-19T03:34:40;97749.97;;;4.38;100.00
73103;BME280;61294;65.988;29.172;2023-09-19T03:37:11;97772.63;;;4.52;100.00
73103;BME280;61294;65.988;29.172;2023-09-19T03:39:37;97764.81;;;4.50;100.00
73103;BME280;61294;65.988;29.172;2023-09-19T03:42:03;97777.00;;;4.53;100.00
73103;BME280;61294;65.988;29.172;2023-09-19T03:44:30;97757.81;;;4.44;100.00
73103;BME280;61294;65.988;29.172;2023-09-19T03:46:56;97724.72;;;4.26;100.00
73103;BME280;61294;65.988;29.172;2023-09-19T03:49:22;97756.13;;;4.49;100.00
73103;BME280;61294;65.988;29.172;2023-09-19T03:51:48;97759.66;;;4.56;100.00
73103;BME280;61294;65.988;29.172;2023-09-19T03:54:14;97748.31;;;4.53;100.00
73103;BME280;61294;65.988;29.172;2023-09-19T03:56:40;97691.66;;;4.18;100.00
73103;BME280;61294;65.988;29.172;2023-09-19T03:59:05;97753.53;;;4.57;100.00
73103;BME280;61294;65.988;29.172;2023-09-19T04:01:31;97753.56;;;4.59;100.00
73103;BME280;61294;65.988;29.172;2023-09-19T04:03:59;97737.88;;;4.56;100.00
73103;BME280;61294;65.988;29.172;2023-09-19T04:06:36;97737.88;;;4.56;100.00
73103;BME280;61294;65.988;29.172;2023-09-19T04:09:04;97752.69;;;4.57;100.00
73103;BME280;61294;65.988;29.172;2023-09-19T04:11:33;97732.69;;;4.57;100.00
73103;BME280;61294;65.988;29.172;2023-09-19T04:13:59;97714.41;;;4.57;100.00
73103;BME280;61294;65.988;29.172;2023-09-19T04:16:25;97719.63;;;4.57;100.00
73103;BME280;61294;65.988;29.172;2023-09-19T04:18:50;97697.00;;;4.50;100.00
73103;BME280;61294;65.988;29.172;2023-09-19T04:21:16;97704.03;;;4.60;100.00
73103;BME280;61294;65.988;29.172;2023-09-19T04:23:42;97706.63;;;4.60;100.00
73103;BME280;61294;65.988;29.172;2023-09-19T04:26:08;97699.66;;;4.62;100.00
73103;BME280;61294;65.988;29.172;2023-09-19T04:28:34;97710.13;;;4.67;100.00
73103;BME280;61294;65.988;29.172;2023-09-19T04:31:00;97704.91;;;4.69;100.00
73103;BME280;61294;65.988;29.172;2023-09-19T04:33:26;97716.22;;;4.71;100.00
73103;BME280;61294;65.988;29.172;2023-09-19T04:35:52;97678.81;;;4.61;100.00
73103;BME280;61294;65.988;29.172;2023-09-19T04:38:19;97664.84;;;4.56;100.00
73103;BME280;61294;65.988;29.172;2023-09-19T04:40:45;97632.69;;;4.49;100.00
73103;BME280;61294;65.988;29.172;2023-09-19T04:43:11;97672.75;;;4.70;100.00
73103;BME280;61294;65.988;29.172;2023-09-19T04:45:38;97625.75;;;4.57;100.00
73103;BME280;61294;65.988;29.172;2023-09-19T04:48:04;97680.56;;;4.76;100.00
73103;BME280;61294;65.988;29.172;2023-09-19T04:50:32;97677.97;;;4.76;100.00
73103;BME280;61294;65.988;29.172;2023-09-19T04:52:59;97669.28;;;4.77;100.00
73103;BME280;61294;65.988;29.172;2023-09-19T04:55:26;97658.84;;;4.80;100.00
73103;BME280;61294;65.988;29.172;2023-09-19T04:57:52;97647.50;;;4.69;100.00
73103;BME280;61294;65.988;29.172;2023-09-19T05:00:20;97643.19;;;4.83;100.00
73103;BME280;61294;65.988;29.172;2023-09-19T05:02:52;97644.03;;;4.77;100.00
73103;BME280;61294;65.988;29.172;2023-09-19T05:05:18;97636.25;;;4.80;100.00
73103;BME280;61294;65.988;29.172;2023-09-19T05:07:45;97641.47;;;4.90;100.00
73103;BME280;61294;65.988;29.172;2023-09-19T05:10:11;97575.31;;;4.60;100.00
73103;BME280;61294;65.988;29.172;2023-09-19T05:12:38;97576.22;;;4.73;100.00
73103;BME280;61294;65.988;29.172;2023-09-19T05:15:04;97607.56;;;4.82;100.00
73103;BME280;61294;65.988;29.172;2023-09-19T05:17:32;97623.22;;;4.99;100.00
73103;BME280;61294;65.988;29.172;2023-09-19T05:19:58;97620.63;;;5.05;100.00
73103;BME280;61294;65.988;29.172;2023-09-19T05:22:26;97604.09;;;5.03;100.00
73103;BME280;61294;65.988;29.172;2023-09-19T05:24:52;97571.03;;;4.85;100.00
73103;BME280;61294;65.988;29.172;2023-09-19T05:27:19;97611.06;;;5.13;100.00
73103;BME280;61294;65.988;29.172;2023-09-19T05:29:46;97618.03;;;5.17;100.00
73103;BME280;61294;65.988;29.172;2023-09-19T05:32:12;97593.66;;;5.12;100.00
73103;BME280;61294;65.988;29.172;2023-09-19T05:34:38;97615.41;;;5.21;100.00
73103;BME280;61294;65.988;29.172;2023-09-19T05:37:05;97596.25;;;5.09;100.00
73103;BME280;61294;65.988;29.172;2023-09-19T05:39:33;97603.22;;;5.23;100.00
73103;BME280;61294;65.988;29.172;2023-09-19T05:41:59;97571.91;;;5.13;100.00
73103;BME280;61294;65.988;29.172;2023-09-19T05:44:25;97583.22;;;5.25;100.00
73103;BME280;61294;65.988;29.172;2023-09-19T05:46:51;97571.00;;;5.30;100.00
73103;BME280;61294;65.988;29.172;2023-09-19T05:49:17;97567.53;;;5.32;100.00
73103;BME280;61294;65.988;29.172;2023-09-19T05:51:43;97560.56;;;5.27;100.00
73103;BME280;61294;65.988;29.172;2023-09-19T05:54:09;97563.19;;;5.34;100.00
73103;BME280;61294;65.988;29.172;2023-09-19T05:56:36;97570.13;;;5.37;100.00
73103;BME280;61294;65.988;29.172;2023-09-19T05:59:02;97561.41;;;5.41;100.00
73103;BME280;61294;65.988;29.172;2023-09-19T06:01:29;97554.44;;;5.39;100.00
73103;BME280;61294;65.988;29.172;2023-09-19T06:03:58;97546.66;;;5.26;100.00
73103;BME280;61294;65.988;29.172;2023-09-19T06:06:25;97564.03;;;5.36;100.00
73103;BME280;61294;65.988;29.172;2023-09-19T06:08:51;97544.00;;;5.35;100.00
73103;BME280;61294;65.988;29.172;2023-09-19T06:11:17;97546.63;;;5.35;100.00
73103;BME280;61294;65.988;29.172;2023-09-19T06:13:46;97540.56;;;5.27;100.00
73103;BME280;61294;65.988;29.172;2023-09-19T06:16:12;97556.22;;;5.33;100.00
73103;BME280;61294;65.988;29.172;2023-09-19T06:18:38;97561.44;;;5.33;100.00
73103;BME280;61294;65.988;29.172;2023-09-19T06:21:04;97564.03;;;5.35;100.00
73103;BME280;61294;65.988;29.172;2023-09-19T06:23:34;97527.50;;;5.27;100.00
73103;BME280;61294;65.988;29.172;2023-09-19T06:26:00;97551.84;;;5.42;100.00
73103;BME280;61294;65.988;29.172;2023-09-19T06:28:26;97544.84;;;5.47;100.00
73103;BME280;61294;65.988;29.172;2023-09-19T06:30:54;97507.47;;;5.29;100.00
73103;BME280;61294;65.988;29.172;2023-09-19T06:33:20;97564.88;;;5.62;100.00
73103;BME280;61294;65.988;29.172;2023-09-19T06:35:47;97511.78;;;5.43;100.00
73103;BME280;61294;65.988;29.172;2023-09-19T06:38:13;97530.91;;;5.57;100.00
73103;BME280;61294;65.988;29.172;2023-09-19T06:40:41;97549.13;;;5.80;100.00
73103;BME280;61294;65.988;29.172;2023-09-19T06:43:09;97525.63;;;5.71;100.00
73103;BME280;61294;65.988;29.172;2023-09-19T06:45:35;97543.94;;;5.77;100.00
73103;BME280;61294;65.988;29.172;2023-09-19T06:48:01;97533.44;;;5.82;100.00
73103;BME280;61294;65.988;29.172;2023-09-19T06:50:28;97523.91;;;5.73;100.00
73103;BME280;61294;65.988;29.172;2023-09-19T06:52:57;97539.53;;;5.82;100.00
73103;BME280;61294;65.988;29.172;2023-09-19T06:55:25;97536.91;;;5.82;100.00
73103;BME280;61294;65.988;29.172;2023-09-19T06:57:53;97536.91;;;5.87;100.00
73103;BME280;61294;65.988;29.172;2023-09-19T07:00:20;97511.66;;;5.78;100.00
73103;BME280;61294;65.988;29.172;2023-09-19T07:03:02;97523.81;;;5.98;100.00
73103;BME280;61294;65.988;29.172;2023-09-19T07:05:30;97514.22;;;6.03;100.00
73103;BME280;61294;65.988;29.172;2023-09-19T07:08:00;97512.50;;;6.00;100.00
73103;BME280;61294;65.988;29.172;2023-09-19T07:10:26;97491.56;;;5.96;100.00
73103;BME280;61294;65.988;29.172;2023-09-19T07:13:00;97475.06;;;5.84;100.00
73103;BME280;61294;65.988;29.172;2023-09-19T07:15:28;97517.59;;;6.24;100.00
73103;BME280;61294;65.988;29.172;2023-09-19T07:17:54;97515.84;;;6.29;100.00
73103;BME280;61294;65.988;29.172;2023-09-19T07:20:22;97507.94;;;6.33;100.00
73103;BME280;61294;65.988;29.172;2023-09-19T07:22:49;97428.00;;;5.89;100.00
73103;BME280;61294;65.988;29.172;2023-09-19T07:25:16;97492.28;;;6.32;100.00
73103;BME280;61294;65.988;29.172;2023-09-19T07:27:42;97453.19;;;6.12;100.00
73103;BME280;61294;65.988;29.172;2023-09-19T07:30:08;97503.53;;;6.42;100.00
73103;BME280;61294;65.988;29.172;2023-09-19T07:32:34;97507.81;;;6.55;100.00
73103;BME280;61294;65.988;29.172;2023-09-19T07:35:02;97473.81;;;6.52;100.00
73103;BME280;61294;65.988;29.172;2023-09-19T07:37:30;97472.94;;;6.54;100.00
73103;BME280;61294;65.988;29.172;2023-09-19T07:39:59;97483.31;;;6.64;100.00
73103;BME280;61294;65.988;29.172;2023-09-19T07:42:26;97458.13;;;6.53;100.00
73103;BME280;61294;65.988;29.172;2023-09-19T07:44:52;97473.75;;;6.60;100.00
73103;BME280;61294;65.988;29.172;2023-09-19T07:47:22;97476.41;;;6.53;100.00
73103;BME280;61294;65.988;29.172;2023-09-19T07:49:47;97423.41;;;6.33;100.00
73103;BME280;61294;65.988;29.172;2023-09-19T07:52:13;97462.41;;;6.62;100.00
73103;BME280;61294;65.988;29.172;2023-09-19T07:54:39;97449.41;;;6.50;100.00
73103;BME280;61294;65.988;29.172;2023-09-19T07:57:07;97453.75;;;6.57;100.00
73103;BME280;61294;65.988;29.172;2023-09-19T07:59:33;97444.13;;;6.57;100.00
73103;BME280;61294;65.988;29.172;2023-09-19T08:01:59;97444.13;;;6.56;100.00
73103;BME280;61294;65.988;29.172;2023-09-19T08:04:26;97418.03;;;6.48;100.00
73103;BME280;61294;65.988;29.172;2023-09-19T08:06:52;97436.19;;;6.65;100.00
73103;BME280;61294;65.988;29.172;2023-09-19T08:09:17;97439.56;;;6.81;100.00
73103;BME280;61294;65.988;29.172;2023-09-19T08:11:47;97448.19;;;6.94;100.00
73103;BME280;61294;65.988;29.172;2023-09-19T08:14:13;97439.31;;;7.06;100.00
73103;BME280;61294;65.988;29.172;2023-09-19T08:16:40;97436.66;;;7.11;100.00
73103;BME280;61294;65.988;29.172;2023-09-19T08:19:06;97427.81;;;7.24;100.00
73103;BME280;61294;65.988;29.172;2023-09-19T08:21:31;97427.84;;;7.18;100.00
73103;BME280;61294;65.988;29.172;2023-09-19T08:23:57;97430.38;;;7.27;100.00
73103;BME280;61294;65.988;29.172;2023-09-19T08:26:23;97421.41;;;7.47;100.00
73103;BME280;61294;65.988;29.172;2023-09-19T08:28:50;97428.41;;;7.46;100.00
73103;BME280;61294;65.988;29.172;2023-09-19T08:31:17;97424.88;;;7.49;100.00
73103;BME280;61294;65.988;29.172;2023-09-19T08:33:43;97421.22;;;7.62;100.00
73103;BME280;61294;65.988;29.172;2023-09-19T08:36:12;97405.31;;;7.76;100.00
73103;BME280;61294;65.988;29.172;2023-09-19T08:38:39;97405.91;;;7.97;100.00
73103;BME280;61294;65.988;29.172;2023-09-19T08:41:06;97419.72;;;8.08;100.00
73103;BME280;61294;65.988;29.172;2023-09-19T08:43:35;97414.56;;;8.02;100.00
73103;BME280;61294;65.988;29.172;2023-09-19T08:46:11;97385.03;;;7.89;100.00
73103;BME280;61294;65.988;29.172;2023-09-19T08:49:03;97379.78;;;7.90;100.00
73103;BME280;61294;65.988;29.172;2023-09-19T08:51:43;97399.38;;;8.25;100.00
73103;BME280;61294;65.988;29.172;2023-09-19T08:54:21;97392.88;;;8.51;100.00
73103;BME280;61294;65.988;29.172;2023-09-19T08:56:49;97404.09;;;8.61;100.00
73103;BME280;61294;65.988;29.172;2023-09-19T08:59:15;97401.63;;;8.50;100.00
73103;BME280;61294;65.988;29.172;2023-09-19T09:01:45;97392.09;;;8.43;100.00
73103;BME280;61294;65.988;29.172;2023-09-19T09:04:12;97391.28;;;8.38;100.00
73103;BME280;61294;65.988;29.172;2023-09-19T09:06:39;97396.50;;;8.42;100.00
73103;BME280;61294;65.988;29.172;2023-09-19T09:09:11;97385.91;;;8.49;100.00
73103;BME280;61294;65.988;29.172;2023-09-19T09:11:38;97385.91;;;8.49;100.00
73103;BME280;61294;65.988;29.172;2023-09-19T09:14:06;97383.41;;;8.41;100.00
73103;BME280;61294;65.988;29.172;2023-09-19T09:16:33;97383.44;;;8.36;100.00
73103;BME280;61294;65.988;29.172;2023-09-19T09:18:59;97343.47;;;8.20;100.00
73103;BME280;61294;65.988;29.172;2023-09-19T09:21:26;97381.59;;;8.43;100.00
73103;BME280;61294;65.988;29.172;2023-09-19T09:23:52;97385.88;;;8.50;100.00
73103;BME280;61294;65.988;29.172;2023-09-19T09:26:54;97341.72;;;8.21;100.00
73103;BME280;61294;65.988;29.172;2023-09-19T09:29:42;97362.84;;;8.66;100.00
73103;BME280;61294;65.988;29.172;2023-09-19T09:34:44;97343.41;;;8.78;100.00
73103;BME280;61294;65.988;29.172;2023-09-19T09:37:15;97331.22;;;9.21;100.00
73103;BME280;61294;65.988;29.172;2023-09-19T09:39:49;97329.84;;;10.58;100.00
73103;BME280;61294;65.988;29.172;2023-09-19T09:42:34;97326.44;;;13.12;100.00
73103;BME280;61294;65.988;29.172;2023-09-19T09:45:20;97326.56;;;11.14;100.00
73103;BME280;61294;65.988;29.172;2023-09-19T09:47:58;97336.63;;;10.99;100.00
73103;BME280;61294;65.988;29.172;2023-09-19T09:50:31;97319.41;;;10.17;100.00
73103;BME280;61294;65.988;29.172;2023-09-19T09:53:03;97325.47;;;9.83;100.00
73103;BME280;61294;65.988;29.172;2023-09-19T09:55:59;97286.97;;;9.79;100.00
73103;BME280;61294;65.988;29.172;2023-09-19T09:58:25;97324.50;;;10.25;100.00
73103;BME280;61294;65.988;29.172;2023-09-19T10:00:59;97285.06;;;11.52;95.35
73103;BME280;61294;65.988;29.172;2023-09-19T10:03:39;97265.66;;;12.87;87.65
73103;BME280;61294;65.988;29.172;2023-09-19T10:06:17;97293.50;;;13.21;80.67
73103;BME280;61294;65.988;29.172;2023-09-19T10:09:00;97284.28;;;12.58;79.95
73103;BME280;61294;65.988;29.172;2023-09-19T10:11:42;97287.19;;;12.51;78.92
73103;BME280;61294;65.988;29.172;2023-09-19T10:14:13;97271.34;;;13.01;76.98
73103;BME280;61294;65.988;29.172;2023-09-19T10:16:45;97263.50;;;13.91;71.23
73103;BME280;61294;65.988;29.172;2023-09-19T10:19:16;97235.53;;;13.16;69.66
73103;BME280;61294;65.988;29.172;2023-09-19T10:21:50;97225.09;;;12.64;71.10
73103;BME280;61294;65.988;29.172;2023-09-19T10:24:17;97255.56;;;13.22;72.30
73103;BME280;61294;65.988;29.172;2023-09-19T10:26:45;97222.69;;;13.97;68.96
73103;BME280;61294;65.988;29.172;2023-09-19T10:29:13;97225.13;;;14.24;64.33
73103;BME280;61294;65.988;29.172;2023-09-19T10:31:42;97248.72;;;14.08;64.59
73103;BME280;61294;65.988;29.172;2023-09-19T10:34:14;97207.03;;;14.13;65.50
73103;BME280;61294;65.988;29.172;2023-09-19T10:36:44;97184.47;;;14.45;62.59
73103;BME280;61294;65.988;29.172;2023-09-19T10:39:14;97236.78;;;16.50;60.57
73103;BME280;61294;65.988;29.172;2023-09-19T10:41:51;97218.38;;;19.15;51.74
73103;BME280;61294;65.988;29.172;2023-09-19T10:44:26;97220.50;;;24.09;44.75
73103;BME280;61294;65.988;29.172;2023-09-19T10:47:02;97242.41;;;25.33;39.25
73103;BME280;61294;65.988;29.172;2023-09-19T10:49:31;97233.84;;;25.28;38.11
73103;BME280;61294;65.988;29.172;2023-09-19T10:52:02;97232.94;;;26.79;30.36
73103;BME280;61294;65.988;29.172;2023-09-19T10:54:55;97233.22;;;27.52;31.34
73103;BME280;61294;65.988;29.172;2023-09-19T10:57:26;97225.06;;;25.57;32.02
73103;BME280;61294;65.988;29.172;2023-09-19T11:00:09;97224.03;;;24.75;33.69
73103;BME280;61294;65.988;29.172;2023-09-19T11:03:21;97224.34;;;22.58;35.25
73103;BME280;61294;65.988;29.172;2023-09-19T11:06:34;97184.16;;;17.71;41.13
73103;BME280;61294;65.988;29.172;2023-09-19T11:09:06;97180.38;;;15.92;43.65
73103;BME280;61294;65.988;29.172;2023-09-19T11:11:44;97175.03;;;15.56;44.67
73103;BME280;61294;65.988;29.172;2023-09-19T11:17:36;97181.19;;;14.80;49.22
73103;BME280;61294;65.988;29.172;2023-09-19T11:20:21;97180.97;;;14.65;51.09
73103;BME280;61294;65.988;29.172;2023-09-19T11:25:41;97200.69;;;13.95;55.38
73103;BME280;61294;65.988;29.172;2023-09-19T11:30:59;97191.91;;;13.04;56.71
73103;BME280;61294;65.988;29.172;2023-09-19T11:33:35;97142.84;;;12.97;58.87
73103;BME280;61294;65.988;29.172;2023-09-19T11:36:13;97150.00;;;13.17;57.96
73103;BME280;61294;65.988;29.172;2023-09-19T11:43:51;97129.19;;;19.74;42.04
73103;BME280;61294;65.988;29.172;2023-09-19T11:46:18;97167.72;;;18.41;44.77
73103;BME280;61294;65.988;29.172;2023-09-19T11:48:50;97164.97;;;17.50;45.47
73103;BME280;61294;65.988;29.172;2023-09-19T11:51:23;97106.38;;;16.53;47.51
73103;BME280;61294;65.988;29.172;2023-09-19T11:53:58;97151.03;;;20.86;40.44
73103;BME280;61294;65.988;29.172;2023-09-19T11:56:29;97148.44;;;16.96;45.46
73103;BME280;61294;65.988;29.172;2023-09-19T11:58:59;97128.41;;;14.94;48.78
73103;BME280;61294;65.988;29.172;2023-09-19T12:03:56;97148.03;;;13.89;54.81
73103;BME280;61294;65.988;29.172;2023-09-19T12:06:24;97112.09;;;13.62;56.68
73103;BME280;61294;65.988;29.172;2023-09-19T12:08:51;97121.13;;;12.89;57.40
73103;BME280;61294;65.988;29.172;2023-09-19T12:11:20;97121.78;;;12.72;58.40
73103;BME280;61294;65.988;29.172;2023-09-19T12:13:47;97081.63;;;12.38;60.19
73103;BME280;61294;65.988;29.172;2023-09-19T12:16:19;97135.44;;;12.83;61.55
73103;BME280;61294;65.988;29.172;2023-09-19T12:18:49;97116.59;;;12.45;61.76
73103;BME280;61294;65.988;29.172;2023-09-19T12:21:23;97118.47;;;12.18;62.00
73103;BME280;61294;65.988;29.172;2023-09-19T12:24:06;97133.81;;;11.80;64.26
73103;BME280;61294;65.988;29.172;2023-09-19T12:26:41;97127.28;;;11.65;66.91
73103;BME280;61294;65.988;29.172;2023-09-19T12:29:14;97101.66;;;11.68;71.09
73103;BME280;61294;65.988;29.172;2023-09-19T12:31:56;97121.94;;;11.39;69.85
73103;BME280;61294;65.988;29.172;2023-09-19T12:34:30;97106.44;;;11.30;71.58
73103;BME280;61294;65.988;29.172;2023-09-19T12:37:15;97111.28;;;11.16;72.50
73103;BME280;61294;65.988;29.172;2023-09-19T12:39:47;97101.63;;;11.43;75.15
73103;BME280;61294;65.988;29.172;2023-09-19T12:42:21;97101.25;;;11.27;77.71
73103;BME280;61294;65.988;29.172;2023-09-19T12:44:53;97093.69;;;11.16;77.38
73103;BME280;61294;65.988;29.172;2023-09-19T12:47:23;97094.03;;;11.05;79.56
73103;BME280;61294;65.988;29.172;2023-09-19T12:52:50;97071.50;;;10.67;81.79
73103;BME280;61294;65.988;29.172;2023-09-19T12:57:58;97064.31;;;10.44;84.71
73103;BME280;61294;65.988;29.172;2023-09-19T13:00:43;97058.34;;;10.67;87.53
73103;BME280;61294;65.988;29.172;2023-09-19T13:03:28;97058.13;;;10.75;88.51
73103;BME280;61294;65.988;29.172;2023-09-19T13:08:40;97032.28;;;10.28;87.23
73103;BME280;61294;65.988;29.172;2023-09-19T13:11:17;97043.41;;;10.08;88.15
73103;BME280;61294;65.988;29.172;2023-09-19T13:17:01;97029.44;;;10.35;91.79
73103;BME280;61294;65.988;29.172;2023-09-19T13:19:49;97002.22;;;10.36;94.17
73103;BME280;61294;65.988;29.172;2023-09-19T13:22:39;97021.84;;;10.56;94.69
73103;BME280;61294;65.988;29.172;2023-09-19T13:25:13;97026.69;;;10.40;93.79
73103;BME280;61294;65.988;29.172;2023-09-19T13:27:42;97035.03;;;10.25;93.12
73103;BME280;61294;65.988;29.172;2023-09-19T13:30:08;97005.50;;;10.45;95.21
73103;BME280;61294;65.988;29.172;2023-09-19T13:32:34;97031.22;;;10.35;94.07
73103;BME280;61294;65.988;29.172;2023-09-19T13:35:03;97017.53;;;10.22;94.84
73103;BME280;61294;65.988;29.172;2023-09-19T13:37:32;97006.28;;;10.17;95.62
73103;BME280;61294;65.988;29.172;2023-09-19T13:39:59;96971.44;;;10.09;96.54
73103;BME280;61294;65.988;29.172;2023-09-19T13:42:25;97001.84;;;10.19;99.72